Time;durP1;ratioP1;P1;durP2;ratioP2;P2;SDS_P1;SDS_P2;PMS_P1;PMS_P2;Temp;Humidity;BMP_temperature;BMP_pressure;BME280_temperature;BME280_humidity;BME280_pressure;Samples;Min_cycle;Max_cycle;Signal;HPM_P1;HPM_P2
2024/04/19 00:01:54;;;;;;;13.65;8.45;;;;;;;;;;5377058;26;20114;-62
2024/04/19 00:04:20;;;;;;;13.25;7.80;;;;;;;;;;5376803;26;20007;-64
2024/04/19 00:06:46;;;;;;;13.23;7.90;;;;;;;;;;5377507;26;20000;-63
2024/04/19 00:09:12;;;;;;;13.35;8.00;;;;;;;;;;5376387;26;20404;-62
2024/04/19 00:11:38;;;;;;;12.98;7.63;;;;;;;;;;5376884;26;20007;-61
2024/04/19 00:14:04;;;;;;;13.82;8.38;;;;;;;;;;5376629;26;19997;-63
2024/04/19 00:16:30;;;;;;;13.50;7.80;;;;;;;;;;5377204;26;19993;-62
2024/04/19 00:18:56;;;;;;;13.07;8.05;;;;;;;;;;5376992;26;20000;-62
2024/04/19 00:21:22;;;;;;;12.48;7.25;;;;;;;;;;5377477;26;20012;-61
2024/04/19 00:23:48;;;;;;;13.13;7.78;;;;;;;;;;5374389;26;20341;-60
2024/04/19 00:26:14;;;;;;;13.48;8.30;;;;;;;;;;5377403;26;20028;-61
2024/04/19 00:28:40;;;;;;;13.48;8.00;;;;;;;;;;5377528;26;20011;-63
2024/04/19 00:31:06;;;;;;;13.45;8.20;;;;;;;;;;5377364;26;20003;-62
2024/04/19 00:33:32;;;;;;;13.52;8.50;;;;;;;;;;5376208;26;20019;-63
2024/04/19 00:35:58;;;;;;;13.68;8.75;;;;;;;;;;5377215;26;20072;-62
2024/04/19 00:38:24;;;;;;;13.70;8.98;;;;;;;;;;5376700;26;20065;-62
2024/04/19 00:40:50;;;;;;;15.88;14.18;;;;;;;;;;5376886;26;20000;-62
2024/04/19 00:43:16;;;;;;;18.52;16.73;;;;;;;;;;5376124;26;20000;-60
2024/04/19 00:45:42;;;;;;;20.33;18.42;;;;;;;;;;5376103;26;20024;-62
2024/04/19 00:48:08;;;;;;;20.90;19.00;;;;;;;;;;5376922;26;20065;-63
2024/04/19 00:50:34;;;;;;;21.75;19.85;;;;;;;;;;5376823;26;19992;-62
2024/04/19 00:53:01;;;;;;;24.90;22.75;;;;;;;;;;5376733;26;20322;-63
2024/04/19 00:55:27;;;;;;;22.70;20.77;;;;;;;;;;5377103;26;20007;-62
2024/04/19 00:57:54;;;;;;;22.90;21.00;;;;;;;;;;5376996;26;20007;-63
2024/04/19 01:00:20;;;;;;;23.20;21.20;;;;;;;;;;5376596;26;20065;-62
2024/04/19 01:02:46;;;;;;;22.73;20.73;;;;;;;;;;5376531;26;20014;-62
2024/04/19 01:05:12;;;;;;;22.83;20.92;;;;;;;;;;5375819;26;20008;-62
2024/04/19 01:07:38;;;;;;;24.83;22.83;;;;;;;;;;5376340;26;20020;-62
2024/04/19 01:10:04;;;;;;;25.05;23.05;;;;;;;;;;5376079;26;20075;-62
2024/04/19 01:12:30;;;;;;;24.23;22.23;;;;;;;;;;5375951;26;20047;-61
2024/04/19 01:14:56;;;;;;;25.30;23.27;;;;;;;;;;5376275;26;20624;-62
2024/04/19 01:17:22;;;;;;;25.63;23.63;;;;;;;;;;5374487;26;20007;-61
2024/04/19 01:19:48;;;;;;;28.75;26.50;;;;;;;;;;5374886;26;19996;-62
2024/04/19 01:22:14;;;;;;;28.40;26.20;;;;;;;;;;5376658;26;19996;-63
2024/04/19 01:24:45;;;;;;;31.55;29.15;;;;;;;;;;5376413;26;20000;-62
2024/04/19 01:27:11;;;;;;;32.88;30.38;;;;;;;;;;5376737;26;20004;-61
2024/04/19 01:29:37;;;;;;;30.35;28.05;;;;;;;;;;5376372;26;19988;-60
2024/04/19 01:32:03;;;;;;;32.33;30.02;;;;;;;;;;5375817;26;19992;-62
2024/04/19 01:34:30;;;;;;;32.65;30.25;;;;;;;;;;5375769;26;19992;-62
2024/04/19 01:36:56;;;;;;;34.25;31.85;;;;;;;;;;5376102;26;20003;-58
2024/04/19 01:39:22;;;;;;;32.58;30.17;;;;;;;;;;5376014;26;19992;-60
2024/04/19 01:41:48;;;;;;;31.23;28.92;;;;;;;;;;5375998;26;20058;-60
2024/04/19 01:44:14;;;;;;;32.75;30.35;;;;;;;;;;5375559;26;20017;-61
2024/04/19 01:46:40;;;;;;;31.52;29.23;;;;;;;;;;5376184;26;20038;-59
2024/04/19 01:49:06;;;;;;;32.33;29.73;;;;;;;;;;5376061;26;20484;-62
2024/04/19 01:51:32;;;;;;;31.23;28.92;;;;;;;;;;5376221;26;20036;-61
2024/04/19 01:53:59;;;;;;;31.58;29.27;;;;;;;;;;5375288;26;20000;-60
2024/04/19 01:56:25;;;;;;;30.55;28.30;;;;;;;;;;5375746;26;19996;-60
2024/04/19 01:58:51;;;;;;;31.08;28.80;;;;;;;;;;5375778;26;19992;-61
2024/04/19 02:01:17;;;;;;;30.20;28.00;;;;;;;;;;5376520;26;20015;-61
2024/04/19 02:03:43;;;;;;;33.58;31.17;;;;;;;;;;5373471;26;20003;-62
2024/04/19 02:06:13;;;;;;;35.50;33.00;;;;;;;;;;5376297;26;20074;-63
2024/04/19 02:08:39;;;;;;;34.03;31.63;;;;;;;;;;5375832;26;20333;-61
2024/04/19 02:11:05;;;;;;;31.50;29.05;;;;;;;;;;5375414;26;19996;-61
2024/04/19 02:13:31;;;;;;;32.67;30.27;;;;;;;;;;5374962;26;19996;-60
2024/04/19 02:16:01;;;;;;;34.30;31.80;;;;;;;;;;5375853;26;20464;-61
2024/04/19 02:18:27;;;;;;;32.70;30.30;;;;;;;;;;5375754;26;20015;-61
2024/04/19 02:20:53;;;;;;;32.25;29.80;;;;;;;;;;5376216;26;20015;-61
2024/04/19 02:23:38;;;;;;;32.78;30.48;;;;;;;;;;5375244;26;19992;-61
2024/04/19 02:26:04;;;;;;;36.67;34.17;;;;;;;;;;5375929;26;20001;-60
2024/04/19 02:31:15;;;;;;;42.45;39.65;;;;;;;;;;5375113;26;20011;-60
2024/04/19 02:33:41;;;;;;;41.15;38.35;;;;;;;;;;5372988;26;20000;-61
2024/04/19 02:36:09;;;;;;;40.42;37.72;;;;;;;;;;5376080;26;20065;-62
2024/04/19 02:38:37;;;;;;;41.78;38.97;;;;;;;;;;5375234;26;20389;-61
2024/04/19 02:41:03;;;;;;;39.58;36.88;;;;;;;;;;5375065;26;20004;-60
2024/04/19 02:43:29;;;;;;;37.15;34.55;;;;;;;;;;5374109;26;20145;-60
2024/04/19 02:45:55;;;;;;;38.45;35.85;;;;;;;;;;5375503;26;20445;-61
2024/04/19 02:48:21;;;;;;;38.65;36.05;;;;;;;;;;5375247;26;20011;-61
2024/04/19 02:50:50;;;;;;;35.50;33.00;;;;;;;;;;5375221;26;20003;-61
2024/04/19 02:53:18;;;;;;;36.45;33.95;;;;;;;;;;5374573;26;20463;-61
2024/04/19 02:55:44;;;;;;;33.60;31.20;;;;;;;;;;5374983;26;19997;-61
2024/04/19 02:58:10;;;;;;;32.40;30.10;;;;;;;;;;5374629;26;19989;-57
2024/04/19 03:00:37;;;;;;;32.13;29.83;;;;;;;;;;5374559;26;20351;-63
2024/04/19 03:03:03;;;;;;;32.58;30.27;;;;;;;;;;5373652;26;20442;-61
2024/04/19 03:05:28;;;;;;;32.38;30.08;;;;;;;;;;5374185;26;19997;-59
2024/04/19 03:07:55;;;;;;;33.60;31.20;;;;;;;;;;5374400;26;20031;-60
2024/04/19 03:10:21;;;;;;;31.63;29.33;;;;;;;;;;5374507;26;20459;-61
2024/04/19 03:12:47;;;;;;;34.20;31.80;;;;;;;;;;5374342;26;20010;-59
2024/04/19 03:15:13;;;;;;;33.90;31.50;;;;;;;;;;5373714;26;20315;-60
2024/04/19 03:17:39;;;;;;;33.70;31.30;;;;;;;;;;5374797;26;20008;-61
2024/04/19 03:20:05;;;;;;;32.28;29.98;;;;;;;;;;5374625;26;20000;-59
2024/04/19 03:22:31;;;;;;;34.13;31.73;;;;;;;;;;5380654;26;20337;-60
2024/04/19 03:24:57;;;;;;;33.13;30.73;;;;;;;;;;5409154;26;19992;-60
2024/04/19 03:27:23;;;;;;;32.90;30.50;;;;;;;;;;5408784;26;20054;-60
2024/04/19 03:29:49;;;;;;;34.38;31.98;;;;;;;;;;5409138;26;19996;-60
2024/04/19 03:32:15;;;;;;;34.38;31.88;;;;;;;;;;5409372;26;20002;-59
2024/04/19 03:34:44;;;;;;;35.05;32.55;;;;;;;;;;5408889;26;20007;-59
2024/04/19 03:37:10;;;;;;;35.83;33.33;;;;;;;;;;5407388;26;19996;-61
2024/04/19 03:39:36;;;;;;;38.67;35.97;;;;;;;;;;5408984;26;19992;-61
2024/04/19 03:42:10;;;;;;;36.50;33.92;;;;;;;;;;5408833;26;19995;-61
2024/04/19 03:47:20;;;;;;;33.30;30.90;;;;;;;;;;5413504;26;20041;-62
2024/04/19 03:49:46;;;;;;;32.95;30.55;;;;;;;;;;5411207;26;20003;-62
2024/04/19 03:52:12;;;;;;;32.38;30.08;;;;;;;;;;5412572;26;20371;-63
2024/04/19 03:54:38;;;;;;;32.00;29.70;;;;;;;;;;5412468;26;20040;-63
2024/04/19 03:57:04;;;;;;;31.67;29.38;;;;;;;;;;5412729;26;20030;-62
2024/04/19 03:59:30;;;;;;;32.15;29.85;;;;;;;;;;5412346;26;20011;-61
2024/04/19 04:01:56;;;;;;;32.10;29.70;;;;;;;;;;5412353;26;20073;-60
2024/04/19 04:04:22;;;;;;;35.60;33.00;;;;;;;;;;5411977;26;20007;-61
2024/04/19 04:06:48;;;;;;;40.88;38.10;;;;;;;;;;5412678;26;19995;-58
2024/04/19 04:09:14;;;;;;;36.90;34.30;;;;;;;;;;5412702;26;20059;-60
2024/04/19 04:11:40;;;;;;;35.17;32.67;;;;;;;;;;5412789;26;19988;-61
2024/04/19 04:14:08;;;;;;;34.13;31.67;;;;;;;;;;5411970;26;20007;-61
2024/04/19 04:16:34;;;;;;;34.65;32.25;;;;;;;;;;5413301;26;19995;-62
2024/04/19 04:19:00;;;;;;;32.75;30.45;;;;;;;;;;5412931;26;20002;-61
2024/04/19 04:21:26;;;;;;;34.33;31.92;;;;;;;;;;5412944;26;19999;-61
2024/04/19 04:23:52;;;;;;;33.70;31.30;;;;;;;;;;5412156;26;19999;-61
2024/04/19 04:26:18;;;;;;;32.00;29.70;;;;;;;;;;5412580;26;20294;-60
2024/04/19 04:28:44;;;;;;;30.60;28.40;;;;;;;;;;5412470;26;20037;-63
2024/04/19 04:31:10;;;;;;;29.77;27.58;;;;;;;;;;5410630;26;20004;-60
2024/04/19 04:33:36;;;;;;;31.05;28.75;;;;;;;;;;5409086;26;20078;-61
2024/04/19 04:36:02;;;;;;;31.52;29.23;;;;;;;;;;5394306;26;20116;-62
2024/04/19 04:38:28;;;;;;;30.30;28.10;;;;;;;;;;5390412;26;20010;-62
2024/04/19 04:40:54;;;;;;;30.70;28.45;;;;;;;;;;5412481;26;20069;-62
2024/04/19 04:43:20;;;;;;;31.45;29.15;;;;;;;;;;5411919;26;20014;-62
2024/04/19 04:45:46;;;;;;;32.10;29.80;;;;;;;;;;5412932;26;20002;-64
2024/04/19 04:48:12;;;;;;;33.45;31.15;;;;;;;;;;5412553;26;20052;-61
2024/04/19 04:50:40;;;;;;;32.15;29.85;;;;;;;;;;5412461;26;19995;-61
2024/04/19 04:53:06;;;;;;;33.20;30.90;;;;;;;;;;5412140;26;20068;-61
2024/04/19 04:55:32;;;;;;;33.92;31.52;;;;;;;;;;5412496;26;20022;-61
2024/04/19 04:57:58;;;;;;;31.80;29.50;;;;;;;;;;5412365;26;19999;-62
2024/04/19 05:00:28;;;;;;;32.25;29.95;;;;;;;;;;5411431;26;19992;-63
2024/04/19 05:02:54;;;;;;;32.95;30.65;;;;;;;;;;5412405;26;20008;-62
2024/04/19 05:05:20;;;;;;;31.85;29.55;;;;;;;;;;5412645;26;20635;-62
2024/04/19 05:07:46;;;;;;;32.38;30.08;;;;;;;;;;5412566;26;20003;-61
2024/04/19 05:10:12;;;;;;;32.90;30.52;;;;;;;;;;5412088;26;20472;-59
2024/04/19 05:12:38;;;;;;;32.85;30.45;;;;;;;;;;5412332;26;20004;-60
2024/04/19 05:15:04;;;;;;;32.47;30.08;;;;;;;;;;5412423;26;20012;-62
2024/04/19 05:17:32;;;;;;;33.35;30.95;;;;;;;;;;5412263;26;20037;-59
2024/04/19 05:19:58;;;;;;;32.67;30.33;;;;;;;;;;5412383;26;20003;-59
2024/04/19 05:22:24;;;;;;;35.33;32.83;;;;;;;;;;5411032;26;19992;-60
2024/04/19 05:24:50;;;;;;;34.70;32.22;;;;;;;;;;5411433;26;20003;-60
2024/04/19 05:27:15;;;;;;;34.85;32.45;;;;;;;;;;5411379;26;20002;-61
2024/04/19 05:29:41;;;;;;;33.90;31.50;;;;;;;;;;5411318;26;20410;-60
2024/04/19 05:32:07;;;;;;;35.95;33.45;;;;;;;;;;5410588;26;20002;-59
2024/04/19 05:34:33;;;;;;;36.25;33.75;;;;;;;;;;5411180;26;20638;-60
2024/04/19 05:37:00;;;;;;;36.97;34.38;;;;;;;;;;5411105;26;20060;-58
2024/04/19 05:39:25;;;;;;;36.15;33.65;;;;;;;;;;5411182;26;20491;-61
2024/04/19 05:41:51;;;;;;;37.20;34.70;;;;;;;;;;5411173;26;19988;-56
2024/04/19 05:44:19;;;;;;;35.92;33.42;;;;;;;;;;5411768;26;19995;-58
2024/04/19 05:46:46;;;;;;;39.07;36.37;;;;;;;;;;5411800;26;19995;-58
2024/04/19 05:49:12;;;;;;;40.42;37.63;;;;;;;;;;5403372;26;20346;-59
2024/04/19 05:51:38;;;;;;;36.75;34.15;;;;;;;;;;5375711;26;19996;-60
2024/04/19 05:54:04;;;;;;;36.22;33.72;;;;;;;;;;5375104;26;20465;-58
2024/04/19 05:56:30;;;;;;;35.45;32.95;;;;;;;;;;5375695;26;20374;-59
2024/04/19 05:58:59;;;;;;;35.42;32.92;;;;;;;;;;5375869;26;20454;-55
2024/04/19 06:01:25;;;;;;;34.13;31.73;;;;;;;;;;5374769;26;19996;-59
2024/04/19 06:03:51;;;;;;;34.42;32.03;;;;;;;;;;5374453;26;20058;-60
2024/04/19 06:06:17;;;;;;;33.22;30.83;;;;;;;;;;5375068;26;19996;-55
2024/04/19 06:08:43;;;;;;;32.03;29.65;;;;;;;;;;5375086;26;20004;-59
2024/04/19 06:11:09;;;;;;;30.75;28.45;;;;;;;;;;5375911;26;20073;-60
2024/04/19 06:13:35;;;;;;;30.33;28.02;;;;;;;;;;5375188;26;20076;-60
2024/04/19 06:16:01;;;;;;;31.20;28.90;;;;;;;;;;5375630;26;20007;-59
2024/04/19 06:18:27;;;;;;;31.42;29.13;;;;;;;;;;5375058;26;19993;-59
2024/04/19 06:20:53;;;;;;;30.67;28.38;;;;;;;;;;5375061;26;19992;-58
2024/04/19 06:23:19;;;;;;;30.83;28.52;;;;;;;;;;5374578;26;20389;-60
2024/04/19 06:25:45;;;;;;;29.95;27.75;;;;;;;;;;5375106;26;19999;-60
2024/04/19 06:28:11;;;;;;;30.23;27.92;;;;;;;;;;5375386;26;20003;-61
2024/04/19 06:30:37;;;;;;;29.67;27.48;;;;;;;;;;5375086;26;20000;-61
2024/04/19 06:33:03;;;;;;;29.60;27.40;;;;;;;;;;5373680;26;20084;-57
2024/04/19 06:35:29;;;;;;;30.35;28.10;;;;;;;;;;5373748;26;20004;-59
2024/04/19 06:37:55;;;;;;;29.10;26.90;;;;;;;;;;5374621;26;20018;-58
2024/04/19 06:40:21;;;;;;;28.55;26.35;;;;;;;;;;5374644;26;20442;-58
2024/04/19 06:42:47;;;;;;;27.50;25.40;;;;;;;;;;5375036;26;20003;-57
2024/04/19 06:45:13;;;;;;;27.63;25.52;;;;;;;;;;5373958;26;20048;-60
2024/04/19 06:47:39;;;;;;;30.02;27.83;;;;;;;;;;5374492;26;19996;-57
2024/04/19 06:50:05;;;;;;;31.40;29.10;;;;;;;;;;5372841;26;20074;-60
2024/04/19 06:52:31;;;;;;;31.73;29.42;;;;;;;;;;5374727;26;20446;-59
2024/04/19 06:54:57;;;;;;;33.33;30.92;;;;;;;;;;5373685;26;19997;-61
2024/04/19 06:57:23;;;;;;;32.40;30.10;;;;;;;;;;5372461;26;20003;-61
2024/04/19 06:59:49;;;;;;;31.90;29.60;;;;;;;;;;5374693;26;20177;-59
2024/04/19 07:02:15;;;;;;;31.48;29.17;;;;;;;;;;5375075;26;20432;-59
2024/04/19 07:04:41;;;;;;;29.92;27.73;;;;;;;;;;5374395;26;20550;-58
2024/04/19 07:07:07;;;;;;;35.00;32.60;;;;;;;;;;5374700;26;20000;-61
2024/04/19 07:09:33;;;;;;;35.15;32.75;;;;;;;;;;5374856;26;20369;-61
2024/04/19 07:11:59;;;;;;;34.60;32.20;;;;;;;;;;5374366;26;19992;-62
2024/04/19 07:14:25;;;;;;;33.75;31.35;;;;;;;;;;5374052;26;20398;-61
2024/04/19 07:16:52;;;;;;;33.63;31.23;;;;;;;;;;5374051;26;20062;-61
2024/04/19 07:19:18;;;;;;;33.05;30.65;;;;;;;;;;5377647;26;20004;-63
2024/04/19 07:21:44;;;;;;;33.08;30.77;;;;;;;;;;5377508;26;20004;-60
2024/04/19 07:24:10;;;;;;;33.35;31.05;;;;;;;;;;5377310;26;20007;-59
2024/04/19 07:26:38;;;;;;;32.55;30.25;;;;;;;;;;5376293;26;20470;-59
2024/04/19 07:29:04;;;;;;;33.22;30.83;;;;;;;;;;5377958;26;20065;-55
2024/04/19 07:31:30;;;;;;;31.08;28.77;;;;;;;;;;5377725;26;20003;-58
2024/04/19 07:33:56;;;;;;;32.22;29.92;;;;;;;;;;5377501;26;19998;-56
2024/04/19 07:36:22;;;;;;;30.75;28.55;;;;;;;;;;5396100;26;19991;-58
2024/04/19 07:38:48;;;;;;;31.42;29.13;;;;;;;;;;5413630;26;20133;-55
2024/04/19 07:41:14;;;;;;;31.00;28.77;;;;;;;;;;5413447;26;19995;-57
2024/04/19 07:43:40;;;;;;;32.42;30.13;;;;;;;;;;5412198;26;19999;-57
2024/04/19 07:46:06;;;;;;;30.85;28.65;;;;;;;;;;5412973;26;19996;-59
2024/04/19 07:48:32;;;;;;;30.65;28.45;;;;;;;;;;5413308;26;19992;-59
2024/04/19 07:51:00;;;;;;;29.50;27.30;;;;;;;;;;5413055;26;20083;-59
2024/04/19 07:53:26;;;;;;;29.85;27.65;;;;;;;;;;5412426;26;19992;-58
2024/04/19 07:55:52;;;;;;;29.40;27.20;;;;;;;;;;5412822;26;20518;-59
2024/04/19 07:58:22;;;;;;;28.52;26.33;;;;;;;;;;5412812;26;19992;-55
2024/04/19 08:00:48;;;;;;;27.30;25.20;;;;;;;;;;5412655;26;19995;-58
2024/04/19 08:03:14;;;;;;;27.25;25.15;;;;;;;;;;5408858;26;20976;-58
2024/04/19 08:05:41;;;;;;;26.50;24.40;;;;;;;;;;5410086;26;19999;-58
2024/04/19 08:08:07;;;;;;;26.92;24.83;;;;;;;;;;5410565;26;19991;-59
2024/04/19 08:10:33;;;;;;;26.30;24.20;;;;;;;;;;5410032;26;20002;-58
2024/04/19 08:12:59;;;;;;;26.92;24.83;;;;;;;;;;5409065;26;20003;-59
2024/04/19 08:15:25;;;;;;;27.35;25.25;;;;;;;;;;5385267;26;20031;-60
2024/04/19 08:17:51;;;;;;;26.98;24.88;;;;;;;;;;5377279;26;19996;-61
2024/04/19 08:20:17;;;;;;;26.33;24.23;;;;;;;;;;5377601;26;20007;-61
2024/04/19 08:22:43;;;;;;;26.55;24.45;;;;;;;;;;5377048;26;20346;-61
2024/04/19 08:25:09;;;;;;;26.10;24.00;;;;;;;;;;5375902;26;20010;-60
2024/04/19 08:27:35;;;;;;;25.80;23.70;;;;;;;;;;5376854;26;19997;-58
2024/04/19 08:30:01;;;;;;;25.85;23.75;;;;;;;;;;5376443;26;20419;-59
2024/04/19 08:32:27;;;;;;;25.52;23.42;;;;;;;;;;5376331;26;20016;-60
2024/04/19 08:34:56;;;;;;;24.65;22.65;;;;;;;;;;5375834;26;20000;-60
2024/04/19 08:37:22;;;;;;;;;;;;;;;;;;5410673;26;20156;-59
2024/04/19 08:39:50;;;;;;;22.80;20.90;;;;;;;;;;5412177;26;19933;-60
2024/04/19 08:42:17;;;;;;;22.58;20.67;;;;;;;;;;5411858;26;20407;-61
2024/04/19 08:44:44;;;;;;;22.27;20.38;;;;;;;;;;5411270;26;20445;-60
2024/04/19 08:47:15;;;;;;;21.90;20.00;;;;;;;;;;5412559;26;20554;-61
2024/04/19 08:49:41;;;;;;;20.38;18.58;;;;;;;;;;5412534;26;20018;-61
2024/04/19 08:52:07;;;;;;;19.45;17.65;;;;;;;;;;5412379;26;19992;-62
2024/04/19 08:54:34;;;;;;;18.88;17.08;;;;;;;;;;5411666;26;19999;-62
2024/04/19 08:57:00;;;;;;;18.85;17.05;;;;;;;;;;5412215;26;20326;-62
2024/04/19 08:59:26;;;;;;;18.60;16.80;;;;;;;;;;5412066;26;20469;-63
2024/04/19 09:01:52;;;;;;;17.58;15.88;;;;;;;;;;5410978;26;20002;-61
2024/04/19 09:04:18;;;;;;;16.52;14.82;;;;;;;;;;5410887;26;19991;-60
2024/04/19 09:06:45;;;;;;;15.68;13.98;;;;;;;;;;5412405;26;20383;-64
2024/04/19 09:09:11;;;;;;;16.60;14.90;;;;;;;;;;5411756;26;20338;-62
2024/04/19 09:11:40;;;;;;;16.23;14.52;;;;;;;;;;5409339;26;19992;-61
2024/04/19 09:14:06;;;;;;;16.50;14.80;;;;;;;;;;5410906;26;19996;-63
2024/04/19 09:16:35;;;;;;;15.55;13.85;;;;;;;;;;5411573;26;20006;-63
2024/04/19 09:19:01;;;;;;;15.30;13.50;;;;;;;;;;5411616;26;20035;-63
2024/04/19 09:21:27;;;;;;;14.88;12.30;;;;;;;;;;5409646;26;20003;-63
2024/04/19 09:23:55;;;;;;;14.93;12.38;;;;;;;;;;5410992;26;20370;-61
2024/04/19 09:26:21;;;;;;;14.70;11.90;;;;;;;;;;5411871;26;20439;-63
2024/04/19 09:28:47;;;;;;;14.70;11.77;;;;;;;;;;5411470;26;20019;-62
2024/04/19 09:31:14;;;;;;;14.65;11.65;;;;;;;;;;5411663;26;20003;-61
2024/04/19 09:33:41;;;;;;;14.60;11.60;;;;;;;;;;5410307;26;20006;-62
2024/04/19 09:36:07;;;;;;;14.60;11.60;;;;;;;;;;5411695;26;19996;-62
2024/04/19 09:38:38;;;;;;;14.48;11.25;;;;;;;;;;5411227;26;19995;-62
2024/04/19 09:41:04;;;;;;;14.63;11.57;;;;;;;;;;5409819;26;20030;-62
2024/04/19 09:43:32;;;;;;;14.50;11.25;;;;;;;;;;5411272;26;20010;-60
2024/04/19 09:45:59;;;;;;;14.30;10.57;;;;;;;;;;5411808;26;20080;-60
2024/04/19 09:48:30;;;;;;;14.40;11.00;;;;;;;;;;5409677;26;19999;-62
2024/04/19 09:50:57;;;;;;;14.10;10.05;;;;;;;;;;5411646;26;20428;-61
2024/04/19 09:53:29;;;;;;;13.90;9.40;;;;;;;;;;5410897;26;20031;-62
2024/04/19 09:56:10;;;;;;;13.75;9.10;;;;;;;;;;5410963;26;20007;-62
2024/04/19 09:58:37;;;;;;;13.90;9.60;;;;;;;;;;5411385;26;20450;-62
2024/04/19 10:01:04;;;;;;;13.80;9.30;;;;;;;;;;5411459;26;20201;-63
2024/04/19 10:03:30;;;;;;;13.88;9.50;;;;;;;;;;5410984;26;20053;-63
2024/04/19 10:05:56;;;;;;;13.82;9.27;;;;;;;;;;5411448;26;20068;-61
2024/04/19 10:08:27;;;;;;;13.98;9.70;;;;;;;;;;5411489;26;20000;-63
2024/04/19 10:10:53;;;;;;;14.23;10.35;;;;;;;;;;5411487;26;20007;-64
2024/04/19 10:13:20;;;;;;;14.07;10.02;;;;;;;;;;5410510;26;20042;-64
2024/04/19 10:15:48;;;;;;;14.45;11.02;;;;;;;;;;5410233;26;19995;-62
2024/04/19 10:18:14;;;;;;;14.18;10.25;;;;;;;;;;5411114;26;20027;-64
2024/04/19 10:20:43;;;;;;;14.00;9.85;;;;;;;;;;5410864;26;20007;-62
2024/04/19 10:23:13;;;;;;;13.88;9.50;;;;;;;;;;5410663;26;19987;-62
2024/04/19 10:25:39;;;;;;;13.73;9.10;;;;;;;;;;5409117;26;20349;-59
2024/04/19 10:28:12;;;;;;;13.60;8.73;;;;;;;;;;5410850;26;20067;-61
2024/04/19 10:30:41;;;;;;;13.60;8.70;;;;;;;;;;5411207;26;19999;-62
2024/04/19 10:33:09;;;;;;;13.75;8.95;;;;;;;;;;5410291;26;20487;-59
2024/04/19 10:35:38;;;;;;;13.60;8.73;;;;;;;;;;5403993;26;20000;-61
2024/04/19 10:38:04;;;;;;;13.43;8.20;;;;;;;;;;5374058;26;20024;-60
2024/04/19 10:40:30;;;;;;;12.98;7.75;;;;;;;;;;5374412;26;20004;-62
2024/04/19 10:43:03;;;;;;;13.25;7.82;;;;;;;;;;5373894;26;20210;-62
2024/04/19 10:45:32;;;;;;;13.07;7.68;;;;;;;;;;5375164;26;20066;-62
2024/04/19 10:48:02;;;;;;;12.90;7.50;;;;;;;;;;5374681;26;20040;-62
2024/04/19 10:50:28;;;;;;;13.25;7.80;;;;;;;;;;5375088;26;19996;-62
2024/04/19 10:52:55;;;;;;;13.38;7.93;;;;;;;;;;5377044;26;20006;-60
2024/04/19 10:55:21;;;;;;;13.38;8.00;;;;;;;;;;5378552;26;20012;-60
2024/04/19 10:57:47;;;;;;;13.20;7.72;;;;;;;;;;5378586;26;20028;-60
2024/04/19 11:00:13;;;;;;;12.60;7.30;;;;;;;;;;5378142;26;20077;-62
2024/04/19 11:02:39;;;;;;;12.90;7.50;;;;;;;;;;5377858;26;20020;-63
2024/04/19 11:05:06;;;;;;;13.32;7.88;;;;;;;;;;5376931;26;20443;-62
2024/04/19 11:07:34;;;;;;;12.60;7.40;;;;;;;;;;5378448;26;19992;-62
2024/04/19 11:10:00;;;;;;;12.80;7.50;;;;;;;;;;5377683;26;20072;-61
2024/04/19 11:12:26;;;;;;;13.13;7.65;;;;;;;;;;5376403;26;19996;-63
2024/04/19 11:14:52;;;;;;;13.18;7.78;;;;;;;;;;5376016;26;19999;-62
2024/04/19 11:17:18;;;;;;;13.27;7.72;;;;;;;;;;5377988;26;20353;-62
2024/04/19 11:19:45;;;;;;;13.40;8.10;;;;;;;;;;5377235;26;20003;-62
2024/04/19 11:22:11;;;;;;;13.50;8.30;;;;;;;;;;5376302;26;19992;-62
2024/04/19 11:24:38;;;;;;;13.38;8.25;;;;;;;;;;5376913;26;20069;-63
2024/04/19 11:27:04;;;;;;;12.75;7.45;;;;;;;;;;5376125;26;19992;-63
2024/04/19 11:29:30;;;;;;;13.20;7.72;;;;;;;;;;5377380;26;20438;-63
2024/04/19 11:31:56;;;;;;;13.05;7.60;;;;;;;;;;5375265;26;20330;-61
2024/04/19 11:34:29;;;;;;;13.20;7.70;;;;;;;;;;5376806;26;20020;-63
2024/04/19 11:36:56;;;;;;;12.60;7.28;;;;;;;;;;5378041;26;19997;-63
2024/04/19 11:39:23;;;;;;;13.52;8.38;;;;;;;;;;5377981;26;20044;-62
2024/04/19 11:41:49;;;;;;;13.52;8.50;;;;;;;;;;5377012;26;20003;-62
2024/04/19 11:44:15;;;;;;;13.88;9.52;;;;;;;;;;5376529;26;19992;-63
2024/04/19 11:46:44;;;;;;;13.70;8.95;;;;;;;;;;5377248;26;20000;-63
2024/04/19 11:49:14;;;;;;;13.82;9.30;;;;;;;;;;5376995;26;20177;-64
2024/04/19 11:51:47;;;;;;;13.93;9.60;;;;;;;;;;5376872;26;19996;-64
2024/04/19 11:54:16;;;;;;;14.15;10.23;;;;;;;;;;5377073;26;20008;-62
2024/04/19 11:56:42;;;;;;;32.88;30.27;;;;;;;;;;5377402;26;20051;-56
2024/04/19 11:59:07;;;;;;;36.33;33.63;;;;;;;;;;5376955;26;20108;-59
2024/04/19 12:01:33;;;;;;;39.10;36.30;;;;;;;;;;5377281;26;19996;-57
2024/04/19 12:03:59;;;;;;;36.63;34.03;;;;;;;;;;5375819;26;20335;-58
2024/04/19 12:06:26;;;;;;;40.45;37.75;;;;;;;;;;5377373;26;20028;-60
2024/04/19 12:08:53;;;;;;;48.50;45.10;;;;;;;;;;5376651;26;20458;-62
2024/04/19 12:11:19;;;;;;;47.40;44.20;;;;;;;;;;5376924;26;20414;-62
2024/04/19 12:13:46;;;;;;;44.25;41.25;;;;;;;;;;5376621;26;20070;-60
2024/04/19 12:16:12;;;;;;;42.40;39.50;;;;;;;;;;5376903;26;20481;-62
2024/04/19 12:18:38;;;;;;;41.40;38.60;;;;;;;;;;5377499;26;20033;-60
2024/04/19 12:21:05;;;;;;;36.97;34.38;;;;;;;;;;5377317;26;19997;-60
2024/04/19 12:23:30;;;;;;;32.00;29.60;;;;;;;;;;5376829;26;20366;-61
2024/04/19 12:25:56;;;;;;;28.98;26.77;;;;;;;;;;5377494;26;19992;-63
2024/04/19 12:28:24;;;;;;;26.40;24.30;;;;;;;;;;5376679;26;19988;-62
2024/04/19 12:30:54;;;;;;;24.63;22.63;;;;;;;;;;5374143;26;20015;-64
2024/04/19 12:33:20;;;;;;;21.48;19.58;;;;;;;;;;5376294;26;20004;-63
2024/04/19 12:35:46;;;;;;;15.60;13.90;;;;;;;;;;5385592;26;19999;-61
2024/04/19 12:38:12;;;;;;;15.50;13.57;;;;;;;;;;5412012;26;20457;-65
2024/04/19 12:40:38;;;;;;;15.50;13.60;;;;;;;;;;5410697;26;19996;-64
2024/04/19 12:43:05;;;;;;;15.50;13.50;;;;;;;;;;5410906;26;20073;-64
2024/04/19 12:45:31;;;;;;;15.68;13.98;;;;;;;;;;5409826;26;20418;-65
2024/04/19 12:48:04;;;;;;;15.00;12.68;;;;;;;;;;5410642;26;19999;-64
2024/04/19 12:50:34;;;;;;;14.90;12.38;;;;;;;;;;5411707;26;20072;-62
2024/04/19 12:53:00;;;;;;;14.90;12.52;;;;;;;;;;5393169;26;20073;-62
2024/04/19 12:55:26;;;;;;;14.80;12.50;;;;;;;;;;5393473;26;20070;-64
2024/04/19 12:57:52;;;;;;;15.32;13.63;;;;;;;;;;5391425;26;20003;-61
2024/04/19 13:00:19;;;;;;;19.67;17.88;;;;;;;;;;5410793;26;20020;-62
2024/04/19 13:02:44;;;;;;;21.42;19.52;;;;;;;;;;5410918;26;20644;-59
2024/04/19 13:05:11;;;;;;;23.52;21.52;;;;;;;;;;5410489;26;20000;-61
2024/04/19 13:07:37;;;;;;;21.30;19.40;;;;;;;;;;5409544;26;20498;-60
2024/04/19 13:10:03;;;;;;;19.80;18.00;;;;;;;;;;5410755;26;19995;-60
2024/04/19 13:12:29;;;;;;;20.05;18.25;;;;;;;;;;5410970;26;20828;-63
2024/04/19 13:14:55;;;;;;;18.63;16.83;;;;;;;;;;5410467;26;20129;-60
2024/04/19 13:17:21;;;;;;;16.77;15.07;;;;;;;;;;5411523;26;20006;-61
2024/04/19 13:19:47;;;;;;;16.50;14.80;;;;;;;;;;5411451;26;20000;-59
2024/04/19 13:22:13;;;;;;;15.27;13.23;;;;;;;;;;5411684;26;19991;-62
2024/04/19 13:24:39;;;;;;;15.40;13.52;;;;;;;;;;5411348;26;20341;-66
2024/04/19 13:27:05;;;;;;;15.23;13.07;;;;;;;;;;5411588;26;19992;-64
2024/04/19 13:29:31;;;;;;;15.68;13.98;;;;;;;;;;5411391;26;19995;-66
2024/04/19 13:31:57;;;;;;;15.82;14.13;;;;;;;;;;5410499;26;20037;-65
2024/04/19 13:34:23;;;;;;;16.23;14.52;;;;;;;;;;5410866;26;20007;-67
2024/04/19 13:36:49;;;;;;;16.05;14.35;;;;;;;;;;5410597;26;20079;-65
2024/04/19 13:39:15;;;;;;;16.25;14.55;;;;;;;;;;5408562;26;20399;-64
2024/04/19 13:41:41;;;;;;;16.30;14.60;;;;;;;;;;5410361;26;20428;-67
2024/04/19 13:44:09;;;;;;;16.60;14.90;;;;;;;;;;5410349;26;20007;-66
2024/04/19 13:46:35;;;;;;;16.92;15.23;;;;;;;;;;5410994;26;20454;-67
2024/04/19 13:49:01;;;;;;;17.38;15.68;;;;;;;;;;5411192;26;19995;-67
2024/04/19 13:51:27;;;;;;;17.90;16.10;;;;;;;;;;5410544;26;20125;-66
2024/04/19 13:53:53;;;;;;;18.20;16.40;;;;;;;;;;5410319;26;19995;-67
2024/04/19 13:56:19;;;;;;;17.17;15.48;;;;;;;;;;5410889;26;20123;-67
2024/04/19 13:58:45;;;;;;;16.38;14.68;;;;;;;;;;5410033;26;20031;-68
2024/04/19 14:01:15;;;;;;;16.02;14.32;;;;;;;;;;5410811;26;20345;-67
2024/04/19 14:03:41;;;;;;;16.20;14.50;;;;;;;;;;5410152;26;20011;-69
2024/04/19 14:06:08;;;;;;;15.40;13.27;;;;;;;;;;5409221;26;19991;-65
2024/04/19 14:08:35;;;;;;;14.80;12.00;;;;;;;;;;5410439;26;20294;-67
2024/04/19 14:11:01;;;;;;;14.80;12.07;;;;;;;;;;5410807;26;19999;-66
2024/04/19 14:13:27;;;;;;;14.57;11.50;;;;;;;;;;5409878;26;20006;-65
2024/04/19 14:15:53;;;;;;;14.77;11.88;;;;;;;;;;5411015;26;20369;-66
2024/04/19 14:18:19;;;;;;;14.50;11.15;;;;;;;;;;5411525;26;20138;-65
2024/04/19 14:20:46;;;;;;;14.73;11.95;;;;;;;;;;5410913;26;20471;-66